Time;durP1;ratioP1;P1;durP2;ratioP2;P2;SDS_P1;SDS_P2;PMS_P1;PMS_P2;Temp;Humidity;BMP_temperature;BMP_pressure;BME280_temperature;BME280_humidity;BME280_pressure;Samples;Min_cycle;Max_cycle;Signal;HPM_P1;HPM_P2
2023/04/03 00:02:24;;;;;;;;;;;13.90;54.40;;;;;;4177745;28;19936;-64
2023/04/03 00:05:05;;;;;;;;;;;13.90;54.00;;;;;;4175544;28;19943;-64
2023/04/03 00:07:46;;;;;;;;;;;13.80;55.70;;;;;;4187395;28;19931;-64
2023/04/03 00:10:26;;;;;;;;;;;13.80;53.90;;;;;;4177076;28;20162;-64
2023/04/03 00:13:08;;;;;;;;;;;13.80;54.60;;;;;;4175691;28;19935;-64
2023/04/03 00:15:49;;;;;;;;;;;13.80;57.40;;;;;;4174284;28;19936;-64
2023/04/03 00:18:30;;;;;;;;;;;13.80;60.30;;;;;;4165500;28;20021;-65
2023/04/03 00:21:12;;;;;;;;;;;13.80;59.80;;;;;;4157976;28;19932;-64
2023/04/03 00:23:53;;;;;;;;;;;13.80;59.80;;;;;;4158916;28;20026;-64
2023/04/03 00:26:33;;;;;;;;;;;13.70;59.20;;;;;;4157542;28;20067;-64
2023/04/03 00:29:14;;;;;;;;;;;13.80;59.30;;;;;;4178640;28;20382;-65
2023/04/03 00:31:56;;;;;;;;;;;13.70;59.30;;;;;;4190555;28;20541;-64
2023/04/03 00:34:36;;;;;;;;;;;13.70;58.90;;;;;;4185781;28;20869;-65
2023/04/03 00:37:18;;;;;;;;;;;13.70;58.80;;;;;;4173965;28;19932;-65
2023/04/03 00:39:58;;;;;;;;;;;13.70;57.50;;;;;;4175255;28;19936;-64
2023/04/03 00:42:40;;;;;;;;;;;13.70;60.30;;;;;;4158859;28;20292;-61
2023/04/03 00:45:35;;;;;;;;;;;13.70;62.50;;;;;;4169301;28;20394;-61
2023/04/03 00:48:19;;;;;;;;;;;13.70;63.70;;;;;;4159972;28;20445;-61
2023/04/03 00:51:00;;;;;;;;;;;13.60;63.40;;;;;;4165014;28;19936;-61
2023/04/03 00:53:42;;;;;;;;;;;13.70;65.80;;;;;;4171180;28;19932;-61
2023/04/03 00:56:24;;;;;;;;;;;13.60;65.30;;;;;;4194686;28;19935;-60
2023/04/03 00:59:09;;;;;;;;;;;13.60;65.70;;;;;;4194765;28;19935;-60
2023/04/03 01:01:50;;;;;;;;;;;13.60;66.30;;;;;;4192563;28;20299;-63
2023/04/03 01:04:34;;;;;;;;;;;13.60;67.10;;;;;;4160677;28;19944;-59
2023/04/03 01:07:16;;;;;;;;;;;13.60;68.00;;;;;;4160550;28;19940;-62
2023/04/03 01:09:58;;;;;;;;;;;13.60;67.10;;;;;;4175012;28;19936;-62
2023/04/03 01:12:39;;;;;;;;;;;13.60;67.90;;;;;;4161671;28;19948;-62
2023/04/03 01:15:22;;;;;;;;;;;13.60;68.50;;;;;;4171765;28;20455;-62
2023/04/03 01:18:04;;;;;;;;;;;13.60;69.00;;;;;;4161393;28;19936;-62
2023/04/03 01:21:02;;;;;;;;;;;13.60;69.00;;;;;;4177294;28;20327;-63
2023/04/03 01:23:54;;;;;;;;;;;13.60;69.50;;;;;;4193651;28;20009;-63
2023/04/03 01:26:36;;;;;;;;;;;13.60;69.60;;;;;;4185907;28;19950;-63
2023/04/03 01:29:16;;;;;;;;;;;13.60;69.80;;;;;;4193331;28;19935;-62
2023/04/03 01:31:59;;;;;;;;;;;13.60;70.20;;;;;;4161432;28;20026;-62
2023/04/03 01:34:40;;;;;;;;;;;13.60;70.40;;;;;;4155460;28;19937;-62
2023/04/03 01:37:21;;;;;;;;;;;13.60;70.40;;;;;;4148391;28;20084;-63
2023/04/03 01:40:01;;;;;;;;;;;13.60;70.70;;;;;;4170314;28;19940;-62
2023/04/03 01:42:42;;;;;;;;;;;13.60;71.00;;;;;;4180363;28;19936;-63
2023/04/03 01:45:23;;;;;;;;;;;13.60;71.30;;;;;;4177986;28;19932;-62
2023/04/03 01:48:05;;;;;;;;;;;13.60;71.50;;;;;;4176915;28;19936;-62
2023/04/03 01:50:46;;;;;;;;;;;13.60;71.60;;;;;;4177006;28;19932;-62
2023/04/03 01:53:27;;;;;;;;;;;13.60;71.80;;;;;;4204874;28;19932;-62
2023/04/03 01:56:08;;;;;;;;;;;13.60;71.90;;;;;;4185898;28;20292;-62
2023/04/03 01:58:49;;;;;;;;;;;13.70;72.00;;;;;;4158914;28;20441;-62
2023/04/03 02:01:30;;;;;;;;;;;13.60;72.00;;;;;;4191745;28;19940;-62
2023/04/03 02:04:12;;;;;;;;;;;13.70;72.20;;;;;;4159862;28;19995;-62
2023/04/03 02:06:54;;;;;;;;;;;13.70;73.30;;;;;;4160869;28;19935;-62
2023/04/03 02:09:34;;;;;;;;;;;13.80;73.00;;;;;;4163529;28;19932;-62
2023/04/03 02:12:15;;;;;;;;;;;14.00;72.60;;;;;;4185153;28;20292;-62
2023/04/03 02:14:56;;;;;;;;;;;14.20;71.90;;;;;;4173073;28;20017;-62
2023/04/03 02:17:37;;;;;;;;;;;14.40;71.20;;;;;;4159597;28;19932;-62
2023/04/03 02:20:19;;;;;;;;;;;14.60;70.50;;;;;;4160730;28;19932;-62
2023/04/03 02:23:01;;;;;;;;;;;14.70;70.00;;;;;;4172963;28;20021;-67
2023/04/03 02:25:42;;;;;;;;;;;14.70;69.50;;;;;;4172447;28;20399;-65
2023/04/03 02:28:22;;;;;;;;;;;14.80;69.40;;;;;;4176780;28;20022;-65
2023/04/03 02:31:03;;;;;;;;;;;14.80;69.60;;;;;;4176551;28;20390;-65
2023/04/03 02:33:44;;;;;;;;;;;14.80;69.20;;;;;;4175577;28;19978;-65
2023/04/03 02:36:29;;;;;;;;;;;14.90;68.50;;;;;;4175100;28;19955;-65
2023/04/03 02:39:13;;;;;;;;;;;15.00;69.50;;;;;;4190275;28;19952;-65
2023/04/03 02:41:54;;;;;;;;;;;15.10;68.50;;;;;;4177969;28;19947;-65
2023/04/03 02:44:38;;;;;;;;;;;15.10;68.30;;;;;;4163583;28;19990;-65
2023/04/03 02:47:19;;;;;;;;;;;15.10;68.10;;;;;;4191048;28;19930;-65
2023/04/03 02:50:01;;;;;;;;;;;15.10;68.10;;;;;;4180355;28;20009;-65
2023/04/03 02:52:43;;;;;;;;;;;15.10;68.20;;;;;;4182044;28;19939;-65
2023/04/03 02:55:24;;;;;;;;;;;15.10;68.20;;;;;;4175460;28;20079;-65
2023/04/03 02:58:08;;;;;;;;;;;15.10;68.20;;;;;;4191720;28;19934;-65
2023/04/03 03:00:49;;;;;;;;;;;15.10;68.20;;;;;;4184885;28;19935;-65
2023/04/03 03:03:29;;;;;;;;;;;15.10;68.20;;;;;;4175281;28;20029;-65
2023/04/03 03:06:11;;;;;;;;;;;15.10;68.10;;;;;;4183605;28;19935;-65
2023/04/03 03:08:54;;;;;;;;;;;15.20;68.10;;;;;;4189527;28;19940;-65
2023/04/03 03:11:35;;;;;;;;;;;15.20;68.20;;;;;;4158413;28;19940;-65
2023/04/03 03:14:16;;;;;;;;;;;15.10;68.10;;;;;;4172333;28;19951;-65
2023/04/03 03:16:57;;;;;;;;;;;15.10;68.20;;;;;;4192642;28;19932;-65
2023/04/03 03:19:37;;;;;;;;;;;15.00;67.70;;;;;;4190815;28;19935;-66
2023/04/03 03:22:18;;;;;;;;;;;15.00;64.50;;;;;;4159628;28;19933;-65
2023/04/03 03:25:00;;;;;;;;;;;15.10;63.20;;;;;;4184210;28;20391;-62
2023/04/03 03:27:41;;;;;;;;;;;15.00;64.40;;;;;;4192083;28;19931;-62
2023/04/03 03:30:21;;;;;;;;;;;15.10;66.50;;;;;;4192569;28;19952;-62
2023/04/03 03:33:02;;;;;;;;;;;15.10;67.50;;;;;;4192592;28;20029;-61
2023/04/03 03:35:43;;;;;;;;;;;15.10;66.10;;;;;;4177903;28;20058;-62
2023/04/03 03:38:24;;;;;;;;;;;15.10;66.70;;;;;;4186508;28;20027;-62
2023/04/03 03:41:07;;;;;;;;;;;15.10;67.00;;;;;;4175267;28;20398;-62
2023/04/03 03:43:50;;;;;;;;;;;15.20;66.60;;;;;;4178836;28;24242;-62
2023/04/03 03:46:31;;;;;;;;;;;15.40;66.70;;;;;;4191143;28;19931;-62
2023/04/03 03:49:12;;;;;;;;;;;15.40;66.60;;;;;;4191048;28;20053;-62
2023/04/03 03:51:53;;;;;;;;;;;15.50;66.50;;;;;;4178794;28;19932;-62
2023/04/03 03:54:34;;;;;;;;;;;15.40;66.50;;;;;;4186040;28;19935;-62
2023/04/03 03:57:16;;;;;;;;;;;15.40;67.40;;;;;;4175735;28;20360;-62
2023/04/03 03:59:57;;;;;;;;;;;15.40;66.80;;;;;;4185969;28;19982;-62
2023/04/03 04:02:38;;;;;;;;;;;15.40;66.90;;;;;;4174451;28;19931;-62
2023/04/03 04:05:19;;;;;;;;;;;15.40;67.00;;;;;;4162319;28;19931;-62
2023/04/03 04:08:00;;;;;;;;;;;15.40;67.00;;;;;;4175985;28;20054;-62
2023/04/03 04:10:40;;;;;;;;;;;15.40;67.10;;;;;;4141665;28;20356;-62
2023/04/03 04:13:23;;;;;;;;;;;15.40;67.20;;;;;;4169288;28;19932;-62
2023/04/03 04:16:05;;;;;;;;;;;15.40;67.00;;;;;;4170731;28;19935;-63
2023/04/03 04:18:46;;;;;;;;;;;15.40;66.70;;;;;;4174444;28;19932;-62
2023/04/03 04:21:27;;;;;;;;;;;15.40;66.60;;;;;;4175615;28;19931;-62
2023/04/03 04:24:08;;;;;;;;;;;15.40;66.00;;;;;;4177160;28;19936;-62
2023/04/03 04:26:50;;;;;;;;;;;15.40;66.20;;;;;;4194115;28;20401;-62
2023/04/03 04:29:35;;;;;;;;;;;15.50;66.40;;;;;;4177776;28;19955;-62
2023/04/03 04:32:17;;;;;;;;;;;15.50;66.50;;;;;;4185381;28;20116;-62
2023/04/03 04:34:58;;;;;;;;;;;15.50;66.60;;;;;;4193907;28;19935;-62
2023/04/03 04:37:40;;;;;;;;;;;15.40;66.70;;;;;;4176311;28;19975;-62
2023/04/03 04:40:21;;;;;;;;;;;15.40;66.80;;;;;;4176323;28;19932;-62
2023/04/03 04:43:02;;;;;;;;;;;15.50;66.80;;;;;;4132276;28;19936;-62
2023/04/03 04:45:44;;;;;;;;;;;15.50;66.80;;;;;;4159829;28;20052;-62
2023/04/03 04:48:25;;;;;;;;;;;15.50;66.80;;;;;;4155204;28;19936;-62
2023/04/03 04:51:06;;;;;;;;;;;15.50;66.80;;;;;;4148343;28;20521;-62
2023/04/03 04:53:49;;;;;;;;;;;15.50;66.80;;;;;;4164434;28;20020;-61
2023/04/03 04:56:32;;;;;;;;;;;15.50;66.50;;;;;;4164195;28;19932;-62
2023/04/03 04:59:13;;;;;;;;;;;15.60;66.60;;;;;;4176152;28;19935;-61
2023/04/03 05:01:55;;;;;;;;;;;15.60;66.50;;;;;;4156719;28;19936;-62
2023/04/03 05:04:36;;;;;;;;;;;15.60;66.30;;;;;;4169628;28;19991;-62
2023/04/03 05:07:22;;;;;;;;;;;15.60;66.30;;;;;;4148033;28;20010;-60
2023/04/03 05:10:03;;;;;;;;;;;15.60;66.30;;;;;;4147850;28;20419;-61
2023/04/03 05:12:45;;;;;;;;;;;15.60;66.40;;;;;;4147669;28;19932;-61
2023/04/03 05:15:26;;;;;;;;;;;15.50;66.50;;;;;;4166675;28;19931;-60
2023/04/03 05:18:09;;;;;;;;;;;15.50;66.80;;;;;;4167142;28;19936;-61
2023/04/03 05:20:51;;;;;;;;;;;15.40;67.00;;;;;;4180539;28;20005;-61
2023/04/03 05:23:33;;;;;;;;;;;15.50;67.10;;;;;;4181997;28;19931;-61
2023/04/03 05:26:15;;;;;;;;;;;15.50;66.80;;;;;;4193316;28;19936;-60
2023/04/03 05:28:57;;;;;;;;;;;15.60;67.70;;;;;;4192310;28;20334;-60
2023/04/03 05:31:38;;;;;;;;;;;15.60;66.60;;;;;;4177969;28;19936;-61
2023/04/03 05:34:23;;;;;;;;;;;15.60;66.40;;;;;;4174984;28;20029;-61
2023/04/03 05:37:06;;;;;;;;;;;15.60;66.30;;;;;;4160272;28;19932;-61
2023/04/03 05:39:46;;;;;;;;;;;15.60;66.30;;;;;;4176650;28;20298;-60
2023/04/03 05:42:27;;;;;;;;;;;15.70;67.40;;;;;;4193101;28;20009;-61
2023/04/03 05:45:08;;;;;;;;;;;15.70;66.40;;;;;;4194185;28;19947;-61
2023/04/03 05:47:49;;;;;;;;;;;15.70;66.30;;;;;;4194256;28;19935;-61
2023/04/03 05:50:31;;;;;;;;;;;15.70;66.20;;;;;;4186202;28;19931;-60
2023/04/03 05:53:16;;;;;;;;;;;15.70;66.20;;;;;;4170832;28;20018;-61
2023/04/03 05:55:56;;;;;;;;;;;15.70;66.30;;;;;;4159872;28;20287;-61
2023/04/03 05:58:38;;;;;;;;;;;15.60;67.40;;;;;;4159559;28;20451;-61
2023/04/03 06:01:18;;;;;;;;;;;15.60;66.80;;;;;;4161120;28;19936;-61
2023/04/03 06:03:59;;;;;;;;;;;15.50;67.20;;;;;;4159319;28;19941;-60
2023/04/03 06:06:46;;;;;;;;;;;15.60;68.40;;;;;;4183309;28;19947;-61
2023/04/03 06:09:28;;;;;;;;;;;15.60;67.40;;;;;;4170228;28;20399;-61
2023/04/03 06:12:09;;;;;;;;;;;15.60;67.70;;;;;;4177079;28;19990;-61
2023/04/03 06:14:50;;;;;;;;;;;15.60;67.70;;;;;;4173902;28;19982;-61
2023/04/03 06:17:31;;;;;;;;;;;15.50;67.50;;;;;;4173975;28;19935;-60
2023/04/03 06:20:12;;;;;;;;;;;15.50;65.60;;;;;;4176288;28;20589;-60
2023/04/03 06:22:55;;;;;;;;;;;15.40;64.60;;;;;;4175534;28;19935;-61
2023/04/03 06:25:35;;;;;;;;;;;15.30;66.10;;;;;;4160193;28;20437;-61
2023/04/03 06:28:16;;;;;;;;;;;15.30;66.40;;;;;;4176371;28;19932;-61
2023/04/03 06:30:56;;;;;;;;;;;15.30;66.10;;;;;;4159669;28;20316;-60
2023/04/03 06:33:37;;;;;;;;;;;15.30;65.40;;;;;;4175012;28;19936;-61
2023/04/03 06:36:20;;;;;;;;;;;15.40;66.30;;;;;;4187232;28;20355;-61
2023/04/03 06:39:03;;;;;;;;;;;15.40;66.30;;;;;;4192777;28;19954;-61
2023/04/03 06:41:44;;;;;;;;;;;15.30;64.80;;;;;;4185500;28;19935;-60
2023/04/03 06:44:25;;;;;;;;;;;15.30;64.90;;;;;;4176141;28;19939;-61
2023/04/03 06:47:05;;;;;;;;;;;15.30;66.40;;;;;;4167006;28;19978;-61
2023/04/03 06:49:46;;;;;;;;;;;15.20;67.00;;;;;;4175378;28;19936;-61
2023/04/03 06:52:26;;;;;;;;;;;15.20;67.20;;;;;;4181815;28;19935;-61
2023/04/03 06:55:09;;;;;;;;;;;15.10;67.20;;;;;;4181235;28;20102;-61
2023/04/03 06:57:50;;;;;;;;;;;15.10;67.50;;;;;;4177609;28;19952;-61
2023/04/03 07:00:31;;;;;;;;;;;15.00;67.60;;;;;;4172288;28;20395;-61
2023/04/03 07:03:11;;;;;;;;;;;14.90;67.90;;;;;;4156410;28;20064;-61
2023/04/03 07:05:52;;;;;;;;;;;14.80;68.40;;;;;;4178811;28;19938;-61
2023/04/03 07:08:33;;;;;;;;;;;14.80;68.50;;;;;;4155728;28;19940;-61
2023/04/03 07:11:16;;;;;;;;;;;14.80;68.80;;;;;;4161027;28;19939;-61
2023/04/03 07:13:56;;;;;;;;;;;14.80;68.90;;;;;;4178565;28;19939;-61
2023/04/03 07:16:37;;;;;;;;;;;14.80;69.00;;;;;;4187190;28;20113;-61
2023/04/03 07:19:21;;;;;;;;;;;14.80;69.00;;;;;;4173328;28;20074;-61
2023/04/03 07:22:02;;;;;;;;;;;14.90;68.80;;;;;;4173023;28;19940;-61
2023/04/03 07:24:42;;;;;;;;;;;15.00;68.40;;;;;;4173743;28;19947;-60
2023/04/03 07:27:25;;;;;;;;;;;15.10;67.50;;;;;;4173346;28;20062;-60
2023/04/03 07:30:06;;;;;;;;;;;15.20;65.80;;;;;;4173267;28;20043;-61
2023/04/03 07:32:47;;;;;;;;;;;15.30;64.00;;;;;;4172626;28;19936;-61
2023/04/03 07:35:28;;;;;;;;;;;15.40;64.90;;;;;;4172695;28;20393;-61
2023/04/03 07:38:09;;;;;;;;;;;15.50;65.70;;;;;;4172728;28;19936;-61
2023/04/03 07:40:50;;;;;;;;;;;15.50;64.70;;;;;;4173064;28;19935;-61
2023/04/03 07:43:34;;;;;;;;;;;15.60;65.90;;;;;;4172827;28;19937;-61
2023/04/03 07:46:14;;;;;;;;;;;15.70;65.30;;;;;;4172283;28;19935;-61
2023/04/03 07:48:55;;;;;;;;;;;15.70;65.10;;;;;;4171674;28;19951;-62
2023/04/03 07:51:37;;;;;;;;;;;15.80;64.80;;;;;;4172761;28;20074;-62
2023/04/03 07:54:18;;;;;;;;;;;15.80;65.00;;;;;;4172666;28;20405;-62
2023/04/03 07:56:58;;;;;;;;;;;15.80;65.50;;;;;;4172225;28;19982;-62
2023/04/03 07:59:42;;;;;;;;;;;15.80;66.00;;;;;;4172159;28;20534;-62
2023/04/03 08:02:23;;;;;;;;;;;15.80;65.90;;;;;;4172473;28;20003;-62
2023/04/03 08:05:03;;;;;;;;;;;15.70;66.00;;;;;;4172644;28;19936;-62
2023/04/03 08:07:44;;;;;;;;;;;15.70;66.20;;;;;;4173774;28;19936;-62
2023/04/03 08:10:25;;;;;;;;;;;15.60;66.60;;;;;;4187586;28;20679;-62
2023/04/03 08:13:07;;;;;;;;;;;15.60;66.80;;;;;;4170183;28;19936;-62
2023/04/03 08:15:50;;;;;;;;;;;15.60;67.10;;;;;;4172928;28;20007;-62
2023/04/03 08:18:31;;;;;;;;;;;15.50;67.20;;;;;;4178203;28;20021;-63
2023/04/03 08:21:13;;;;;;;;;;;15.50;67.50;;;;;;4170045;28;19940;-62
2023/04/03 08:23:54;;;;;;;;;;;15.40;67.60;;;;;;4172126;28;19936;-63
2023/04/03 08:26:35;;;;;;;;;;;15.30;67.80;;;;;;4172693;28;20414;-63
2023/04/03 08:29:16;;;;;;;;;;;15.30;68.00;;;;;;4172757;28;19962;-62
2023/04/03 08:31:58;;;;;;;;;;;15.30;67.80;;;;;;4172355;28;19943;-63
2023/04/03 08:34:39;;;;;;;;;;;15.20;67.70;;;;;;4170864;28;20295;-62
2023/04/03 08:37:20;;;;;;;;;;;15.20;67.90;;;;;;4181648;28;19936;-62
2023/04/03 08:40:01;;;;;;;;;;;15.10;68.40;;;;;;4172690;28;19935;-62
2023/04/03 08:42:47;;;;;;;;;;;15.10;68.10;;;;;;4172820;28;20025;-62
2023/04/03 08:45:33;;;;;;;;;;;15.00;68.10;;;;;;4172758;28;19936;-62
2023/04/03 08:48:20;;;;;;;;;;;15.00;68.20;;;;;;4173178;28;19948;-62
2023/04/03 08:51:05;;;;;;;;;;;15.00;68.20;;;;;;4181149;28;20065;-62
2023/04/03 08:53:56;;;;;;;;;;;14.90;68.30;;;;;;4183151;28;19931;-63
2023/04/03 08:56:36;;;;;;;;;;;14.90;68.30;;;;;;4179353;28;19930;-62
2023/04/03 08:59:22;;;;;;;;;;;14.90;68.20;;;;;;4184685;28;20035;-62
2023/04/03 09:02:06;;;;;;;;;;;14.90;68.30;;;;;;4172066;28;19935;-62
2023/04/03 09:04:48;;;;;;;;;;;14.90;68.30;;;;;;4180055;28;19939;-62
2023/04/03 09:07:34;;;;;;;;;;;14.90;68.40;;;;;;4172499;28;19940;-62
2023/04/03 09:10:15;;;;;;;;;;;14.90;68.50;;;;;;4178436;28;19935;-61
2023/04/03 09:13:00;;;;;;;;;;;14.90;68.60;;;;;;4179590;28;20037;-60
2023/04/03 09:15:41;;;;;;;;;;;14.90;68.70;;;;;;4187868;28;20151;-62
2023/04/03 09:18:26;;;;;;;;;;;14.90;68.60;;;;;;4174966;28;20029;-63
2023/04/03 09:21:12;;;;;;;;;;;14.90;68.40;;;;;;4181836;28;20575;-63
2023/04/03 09:23:54;;;;;;;;;;;14.90;68.50;;;;;;4188107;28;20089;-63
2023/04/03 09:26:37;;;;;;;;;;;14.90;68.70;;;;;;4189322;28;19936;-62
2023/04/03 09:29:20;;;;;;;;;;;14.90;68.40;;;;;;4190102;28;19935;-62
2023/04/03 09:32:02;;;;;;;;;;;15.00;68.40;;;;;;4175618;28;19941;-62
2023/04/03 09:34:43;;;;;;;;;;;15.00;68.40;;;;;;4175540;28;19958;-62
2023/04/03 09:37:37;;;;;;;;;;;15.00;68.70;;;;;;4175558;28;19932;-62
2023/04/03 09:40:29;;;;;;;;;;;15.00;68.70;;;;;;4174810;28;20482;-62
2023/04/03 09:43:20;;;;;;;;;;;15.00;68.90;;;;;;4175307;28;19936;-62
2023/04/03 09:46:18;;;;;;;;;;;15.00;69.00;;;;;;4175435;28;21821;-62
2023/04/03 09:49:01;;;;;;;;;;;15.00;69.00;;;;;;4175183;28;19936;-62
2023/04/03 09:51:48;;;;;;;;;;;15.00;68.50;;;;;;4173421;28;19950;-62
2023/04/03 09:54:37;;;;;;;;;;;15.00;68.60;;;;;;4175195;28;19932;-62
2023/04/03 09:57:18;;;;;;;;;;;15.00;68.60;;;;;;4184264;28;20533;-62
2023/04/03 10:00:01;;;;;;;;;;;15.10;68.60;;;;;;4191144;28;19936;-62
2023/04/03 10:02:45;;;;;;;;;;;15.10;68.00;;;;;;4190956;28;19950;-62
2023/04/03 10:05:28;;;;;;;;;;;15.10;68.10;;;;;;4189832;28;19978;-62
2023/04/03 10:08:10;;;;;;;;;;;15.10;66.60;;;;;;4173392;28;19935;-62
2023/04/03 10:13:21;;;;;;;;;;;15.10;67.10;;;;;;4221303;27;20309;-61
2023/04/03 10:16:04;;;;;;;;;;;15.10;67.30;;;;;;4220701;28;20310;-66
2023/04/03 10:18:47;;;;;;;;;;;15.10;67.50;;;;;;4207350;27;20393;-66
2023/04/03 10:21:35;;;;;;;;;;;15.10;68.40;;;;;;4220220;28;20327;-66
2023/04/03 10:24:18;;;;;;;;;;;15.10;66.90;;;;;;4220198;28;19935;-66
2023/04/03 10:27:02;;;;;;;;;;;15.10;64.70;;;;;;4220088;28;19939;-66
2023/04/03 10:29:49;;;;;;;;;;;15.20;62.80;;;;;;4219576;27;19957;-66
2023/04/03 10:32:47;;;;;;;;;;;15.10;56.70;;;;;;4219200;27;19934;-66
2023/04/03 10:35:36;;;;;;;;;;;15.10;58.20;;;;;;4195552;28;20268;-66
2023/04/03 10:38:21;;;;;;;;;;;15.10;56.10;;;;;;4200619;28;20283;-66
2023/04/03 10:41:06;;;;;;;;;;;15.10;58.10;;;;;;4219214;28;20287;-66
2023/04/03 10:43:52;;;;;;;;;;;15.10;59.40;;;;;;4219153;28;20028;-66
2023/04/03 10:46:36;;;;;;;;;;;15.20;62.00;;;;;;4218656;28;19935;-65
2023/04/03 10:49:23;;;;;;;;;;;15.20;63.70;;;;;;4219678;28;19985;-66
2023/04/03 10:52:08;;;;;;;;;;;15.20;62.90;;;;;;4218702;28;19935;-66
2023/04/03 10:54:55;;;;;;;;;;;15.20;64.90;;;;;;4218829;27;19976;-66
2023/04/03 10:57:36;;;;;;;;;;;15.20;62.30;;;;;;4220037;28;19935;-66
2023/04/03 11:00:20;;;;;;;;;;;15.20;63.80;;;;;;4219987;28;20076;-66
2023/04/03 11:03:05;;;;;;;;;;;15.20;64.30;;;;;;4218388;28;20069;-66
2023/04/03 11:05:48;;;;;;;;;;;15.20;60.50;;;;;;4217733;28;20803;-66
2023/04/03 11:08:34;;;;;;;;;;;15.20;54.20;;;;;;4219838;28;20011;-66
2023/04/03 11:11:17;;;;;;;;;;;15.20;56.20;;;;;;4219644;28;19950;-66
2023/04/03 11:14:02;;;;;;;;;;;15.20;59.00;;;;;;4186526;28;20373;-66
2023/04/03 11:16:45;;;;;;;;;;;15.20;61.20;;;;;;4186730;28;20021;-66
2023/04/03 11:19:38;;;;;;;;;;;15.20;62.20;;;;;;4185210;28;19975;-66
2023/04/03 11:22:24;;;;;;;;;;;15.30;62.80;;;;;;4186484;28;20054;-66
2023/04/03 11:25:07;;;;;;;;;;;15.30;57.70;;;;;;4161426;28;19932;-66
2023/04/03 11:27:50;;;;;;;;;;;15.30;55.80;;;;;;4183618;28;19932;-63
2023/04/03 11:30:34;;;;;;;;;;;15.30;57.40;;;;;;4159283;28;19987;-59
2023/04/03 11:33:24;;;;;;;;;;;15.30;57.90;;;;;;4175300;28;20078;-60
2023/04/03 11:36:08;;;;;;;;;;;15.30;58.50;;;;;;4175715;28;19954;-59
2023/04/03 11:39:00;;;;;;;;;;;15.30;56.50;;;;;;4174671;28;20073;-60
2023/04/03 11:41:41;;;;;;;;;;;15.30;55.00;;;;;;4174002;28;20257;-59
2023/04/03 11:44:36;;;;;;;;;;;15.30;53.70;;;;;;4175057;28;19940;-59
2023/04/03 11:47:31;;;;;;;;;;;15.30;54.60;;;;;;4175034;28;19950;-59
2023/04/03 11:50:31;;;;;;;;;;;15.30;54.90;;;;;;4175236;28;20067;-59
2023/04/03 11:53:41;;;;;;;;;;;15.30;55.90;;;;;;4174190;28;20458;-59
2023/04/03 11:56:31;;;;;;;;;;;15.30;58.80;;;;;;4190275;28;19971;-59
2023/04/03 11:59:25;;;;;;;;;;;15.30;57.60;;;;;;4176948;28;20304;-60
2023/04/03 12:02:28;;;;;;;;;;;15.40;57.30;;;;;;4177051;28;21906;-60
2023/04/03 12:05:27;;;;;;;;;;;15.30;55.40;;;;;;4175435;28;20426;-60
2023/04/03 12:08:24;;;;;;;;;;;15.30;54.80;;;;;;4177184;28;20295;-59
2023/04/03 12:11:16;;;;;;;;;;;15.30;54.00;;;;;;4176831;28;20284;-60
2023/04/03 12:14:06;;;;;;;;;;;15.30;56.30;;;;;;4160662;28;20067;-60
2023/04/03 12:16:47;;;;;;;;;;;15.30;56.10;;;;;;4160769;28;20482;-60
2023/04/03 12:19:30;;;;;;;;;;;15.40;57.70;;;;;;4159463;28;20479;-60
2023/04/03 12:22:22;;;;;;;;;;;15.40;53.40;;;;;;4160091;28;19955;-60
2023/04/03 12:25:22;;;;;;;;;;;15.40;56.50;;;;;;4192530;28;20251;-60
2023/04/03 12:28:06;;;;;;;;;;;15.40;57.60;;;;;;4176865;28;19951;-60
2023/04/03 12:30:47;;;;;;;;;;;15.40;53.20;;;;;;4176766;28;20021;-60
2023/04/03 12:33:33;;;;;;;;;;;15.40;54.60;;;;;;4198592;28;19980;-60
2023/04/03 12:36:18;;;;;;;;;;;15.40;52.40;;;;;;4208766;28;19935;-60
2023/04/03 12:39:04;;;;;;;;;;;15.40;54.80;;;;;;4193820;28;19954;-60
2023/04/03 12:41:50;;;;;;;;;;;15.40;53.20;;;;;;4193351;28;20026;-60
2023/04/03 12:44:44;;;;;;;;;;;15.40;53.50;;;;;;4191708;28;19935;-60
2023/04/03 12:47:28;;;;;;;;;;;15.40;51.70;;;;;;4209853;28;19937;-61
2023/04/03 12:50:19;;;;;;;;;;;15.40;52.20;;;;;;4208468;28;19947;-60
2023/04/03 12:53:01;;;;;;;;;;;15.40;51.90;;;;;;4178931;28;19939;-61
2023/04/03 12:55:42;;;;;;;;;;;15.40;52.30;;;;;;4209899;28;20279;-60
2023/04/03 12:58:24;;;;;;;;;;;15.50;54.40;;;;;;4209702;28;19938;-60
2023/04/03 13:01:11;;;;;;;;;;;15.50;55.20;;;;;;4195510;28;20462;-60
2023/04/03 13:03:53;;;;;;;;;;;15.40;53.20;;;;;;4192992;28;20065;-60
2023/04/03 13:06:38;;;;;;;;;;;15.50;53.50;;;;;;4192939;28;19931;-60
2023/04/03 13:09:21;;;;;;;;;;;15.40;49.30;;;;;;4190262;28;20290;-60
2023/04/03 13:12:04;;;;;;;;;;;15.40;52.00;;;;;;4186315;28;19931;-60
2023/04/03 13:14:53;;;;;;;;;;;15.50;54.10;;;;;;4176166;28;19951;-60
2023/04/03 13:17:39;;;;;;;;;;;15.50;56.60;;;;;;4176531;28;20299;-61
2023/04/03 13:20:22;;;;;;;;;;;15.50;53.40;;;;;;4176177;28;19936;-61
2023/04/03 13:23:04;;;;;;;;;;;15.50;56.10;;;;;;4176198;28;19935;-61
2023/04/03 13:25:47;;;;;;;;;;;15.50;50.90;;;;;;4185087;28;20445;-60
2023/04/03 13:28:27;;;;;;;;;;;15.50;49.90;;;;;;4192666;28;19931;-61
2023/04/03 13:31:17;;;;;;;;;;;15.50;51.30;;;;;;4192557;28;19936;-60
2023/04/03 13:34:03;;;;;;;;;;;15.50;52.50;;;;;;4191445;28;19932;-60
2023/04/03 13:36:45;;;;;;;;;;;15.50;54.00;;;;;;4192629;28;19931;-60
2023/04/03 13:39:27;;;;;;;;;;;15.50;49.60;;;;;;4209326;28;19932;-60
2023/04/03 13:42:16;;;;;;;;;;;15.50;53.40;;;;;;4209189;28;19935;-61
2023/04/03 13:45:11;;;;;;;;;;;15.60;51.80;;;;;;4196141;28;19994;-63
2023/04/03 13:47:52;;;;;;;;;;;15.60;49.80;;;;;;4219170;28;20016;-60
2023/04/03 13:50:50;;;;;;;;;;;15.60;52.20;;;;;;4195929;28;19935;-62
2023/04/03 13:53:31;;;;;;;;;;;15.60;50.70;;;;;;4192044;28;20306;-63
2023/04/03 13:56:18;;;;;;;;;;;15.60;53.10;;;;;;4192152;28;20026;-62
2023/04/03 13:59:04;;;;;;;;;;;15.60;50.80;;;;;;4201176;28;20038;-65
2023/04/03 14:01:48;;;;;;;;;;;15.70;52.00;;;;;;4199403;28;19931;-62
2023/04/03 14:04:31;;;;;;;;;;;15.70;53.50;;;;;;4192077;28;19950;-62
2023/04/03 14:07:13;;;;;;;;;;;15.70;53.10;;;;;;4208615;28;19960;-63
2023/04/03 14:09:54;;;;;;;;;;;15.70;51.00;;;;;;4175466;28;19947;-61
2023/04/03 14:12:37;;;;;;;;;;;15.70;51.50;;;;;;4175019;28;19947;-61
2023/04/03 14:15:20;;;;;;;;;;;15.70;51.40;;;;;;4183448;28;20065;-63
2023/04/03 14:18:01;;;;;;;;;;;15.70;52.10;;;;;;4191799;28;20393;-61
2023/04/03 14:20:44;;;;;;;;;;;15.80;52.10;;;;;;4192941;28;19932;-61
2023/04/03 14:23:26;;;;;;;;;;;15.80;51.10;;;;;;4182425;28;19935;-61
2023/04/03 14:26:10;;;;;;;;;;;15.80;54.30;;;;;;4191529;28;19945;-59
2023/04/03 14:28:53;;;;;;;;;;;15.80;48.20;;;;;;4192097;28;20610;-62
2023/04/03 14:31:33;;;;;;;;;;;15.80;49.90;;;;;;4190614;28;19939;-61
2023/04/03 14:34:14;;;;;;;;;;;15.80;49.60;;;;;;4191343;28;20570;-63
2023/04/03 14:36:55;;;;;;;;;;;15.80;51.80;;;;;;4185873;28;19947;-63
2023/04/03 14:39:38;;;;;;;;;;;15.80;51.30;;;;;;4191622;28;19932;-61
2023/04/03 14:42:19;;;;;;;;;;;15.80;50.90;;;;;;4191527;28;20034;-61
2023/04/03 14:45:03;;;;;;;;;;;15.90;50.90;;;;;;4190910;28;19935;-63
2023/04/03 14:47:46;;;;;;;;;;;15.90;51.40;;;;;;4189754;28;19935;-64
2023/04/03 14:50:28;;;;;;;;;;;15.90;52.80;;;;;;4189544;28;19936;-64
2023/04/03 14:53:08;;;;;;;;;;;16.00;54.10;;;;;;4190225;28;19936;-62
2023/04/03 14:55:51;;;;;;;;;;;16.00;53.30;;;;;;4191119;28;19935;-62
2023/04/03 14:58:32;;;;;;;;;;;16.00;52.30;;;;;;4192007;28;19935;-62
2023/04/03 15:01:13;;;;;;;;;;;16.00;50.80;;;;;;4178158;28;19931;-59
2023/04/03 15:03:54;;;;;;;;;;;16.00;53.30;;;;;;4185757;28;19936;-59
2023/04/03 15:06:36;;;;;;;;;;;16.00;49.20;;;;;;4194838;28;19951;-60
2023/04/03 15:09:20;;;;;;;;;;;16.00;49.40;;;;;;4194745;28;20015;-59
2023/04/03 15:12:02;;;;;;;;;;;16.00;49.30;;;;;;4192561;28;19977;-59
2023/04/03 15:14:43;;;;;;;;;;;16.00;50.70;;;;;;4194954;28;19973;-60
2023/04/03 15:17:31;;;;;;;;;;;16.00;50.60;;;;;;4194558;28;20397;-60
2023/04/03 15:20:13;;;;;;;;;;;16.00;50.80;;;;;;4181251;28;19982;-60
2023/04/03 15:22:53;;;;;;;;;;;16.00;50.90;;;;;;4193523;28;19932;-60
2023/04/03 15:25:34;;;;;;;;;;;16.00;51.40;;;;;;4194485;28;19935;-60
2023/04/03 15:28:19;;;;;;;;;;;16.00;51.80;;;;;;4184597;28;19950;-59
2023/04/03 15:31:00;;;;;;;;;;;16.00;51.90;;;;;;4178136;28;19931;-59
2023/04/03 15:33:41;;;;;;;;;;;15.90;53.50;;;;;;4207455;28;19931;-60
2023/04/03 15:36:22;;;;;;;;;;;15.90;52.40;;;;;;4211459;28;19943;-60
2023/04/03 15:39:09;;;;;;;;;;;15.90;53.70;;;;;;4202374;28;19931;-60
2023/04/03 15:41:51;;;;;;;;;;;15.80;54.60;;;;;;4194367;28;19999;-60
2023/04/03 15:44:34;;;;;;;;;;;15.80;55.20;;;;;;4193562;28;20013;-60
2023/04/03 15:47:15;;;;;;;;;;;15.80;52.20;;;;;;4195861;28;19931;-60
2023/04/03 15:54:13;;;;;;;1.30;0.80;;;15.70;50.50;;;;;;4223959;27;20338;-59
2023/04/03 15:56:54;;;;;;;1.00;0.95;;;15.70;51.00;;;;;;4222674;27;20059;-60